Time;durP1;ratioP1;P1;durP2;ratioP2;P2;SDS_P1;SDS_P2;PMS_P1;PMS_P2;Temp;Humidity;BMP_temperature;BMP_pressure;BME280_temperature;BME280_humidity;BME280_pressure;Samples;Min_cycle;Max_cycle;Signal;HPM_P1;HPM_P2
2021/04/16 00:00:57;;;;;;;11.65;6.60;;;;;;;6.81;94.02;98875.88;1750586;80;21072;-68
2021/04/16 00:03:26;;;;;;;13.53;6.83;;;;;;;6.79;93.86;98876.74;1759019;81;21476;-67
2021/04/16 00:05:55;;;;;;;11.00;6.22;;;;;;;6.77;93.83;98878.97;1750603;80;21476;-68
2021/04/16 00:08:27;;;;;;;8.53;6.40;;;;;;;6.76;93.95;98887.70;1750562;80;21060;-67
2021/04/16 00:10:59;;;;;;;9.68;6.00;;;;;;;6.75;93.96;98877.91;1750908;80;21498;-67
2021/04/16 00:13:28;;;;;;;10.08;6.30;;;;;;;6.73;94.09;98889.69;1750681;82;21574;-68
2021/04/16 00:15:57;;;;;;;10.90;6.55;;;;;;;6.72;94.08;98887.27;1721814;82;21212;-67
2021/04/16 00:18:28;;;;;;;9.53;6.58;;;;;;;6.71;94.11;98887.02;1750628;82;20965;-69
2021/04/16 00:20:57;;;;;;;;;;;;;;;6.69;94.13;98885.95;1753189;82;21064;-69
2021/04/16 00:23:26;;;;;;;8.53;6.53;;;;;;;6.68;93.99;98880.25;1750660;82;20134;-69
2021/04/16 00:25:57;;;;;;;10.05;7.17;;;;;;;6.67;93.95;98884.09;1750638;82;20945;-69
2021/04/16 00:28:26;;;;;;;9.20;7.03;;;;;;;6.64;93.87;98886.06;1758940;81;21073;-69
2021/04/16 00:31:03;;;;;;;8.93;6.95;;;;;;;6.62;93.82;98885.00;1750626;82;21158;-69
2021/04/16 00:33:31;;;;;;;9.05;7.00;;;;;;;6.62;93.83;98889.66;1750582;82;20953;-69
2021/04/16 00:36:00;;;;;;;9.38;6.25;;;;;;;6.60;93.66;98884.50;1760736;81;21531;-69
2021/04/16 00:38:29;;;;;;;9.43;7.03;;;;;;;6.57;93.61;98882.38;1767587;81;21562;-68
2021/04/16 00:41:01;;;;;;;10.28;6.20;;;;;;;6.55;93.65;98887.34;1767313;81;21035;-68
2021/04/16 00:43:31;;;;;;;;;;;;;;;6.55;93.55;98886.53;1770167;81;21333;-68
2021/04/16 00:46:20;;;;;;;10.68;6.22;;;;;;;6.53;93.44;98881.37;1767329;81;20743;-68
2021/04/16 00:48:58;;;;;;;7.83;6.10;;;;;;;6.51;93.49;98879.52;1767642;81;20982;-68
2021/04/16 00:51:47;;;;;;;7.47;5.95;;;;;;;6.52;93.41;98887.95;1767357;81;20996;-69
2021/04/16 00:54:31;;;;;;;12.05;6.72;;;;;;;6.52;93.26;98883.05;1767580;81;21060;-68
2021/04/16 00:57:13;;;;;;;7.47;5.85;;;;;;;6.55;93.15;98888.70;1816114;79;22775;-67
2021/04/16 00:59:45;;;;;;;8.23;5.65;;;;;;;6.49;93.09;98883.10;1789172;80;20974;-67
2021/04/16 01:02:13;;;;;;;7.83;5.65;;;;;;;6.47;93.09;98888.05;1789214;80;21196;-67
2021/04/16 01:04:41;;;;;;;11.95;6.65;;;;;;;6.46;93.15;98881.54;1789155;80;20946;-66
2021/04/16 01:07:10;;;;;;;14.73;8.00;;;;;;;6.43;93.15;98887.05;1789024;80;20982;-67
2021/04/16 01:09:40;;;;;;;12.05;7.85;;;;;;;6.42;93.35;98884.06;1693011;83;21021;-67
2021/04/16 01:12:10;;;;;;;14.30;8.10;;;;;;;6.42;93.25;98882.70;1724531;83;21069;-67
2021/04/16 01:14:39;;;;;;;9.73;6.80;;;;;;;6.42;93.32;98880.53;1721146;83;21399;-67
2021/04/16 01:17:09;;;;;;;10.93;7.03;;;;;;;6.42;93.25;98882.70;1724443;83;21019;-66
2021/04/16 01:20:06;;;;;;;11.33;7.42;;;;;;;6.40;93.21;98882.20;1721279;83;20946;-66
2021/04/16 01:22:44;;;;;;;9.55;6.80;;;;;;;6.37;93.32;98881.45;1724491;83;21513;-67
2021/04/16 01:25:12;;;;;;;9.30;6.28;;;;;;;6.35;93.51;98880.16;1705761;83;21002;-67
2021/04/16 01:27:41;;;;;;;8.35;6.08;;;;;;;6.33;93.63;98879.10;1696299;83;21513;-66
2021/04/16 01:30:17;;;;;;;8.48;6.35;;;;;;;6.32;93.81;98877.48;1721065;83;20990;-65
2021/04/16 01:32:46;;;;;;;10.05;6.55;;;;;;;6.33;93.86;98881.83;1724445;83;21514;-67
2021/04/16 01:35:18;;;;;;;15.45;7.97;;;;;;;6.35;93.87;98879.61;1721081;83;21539;-67
2021/04/16 01:37:47;;;;;;;15.93;7.25;;;;;;;6.35;93.90;98880.97;1724503;83;21093;-67
2021/04/16 01:40:16;;;;;;;14.73;8.10;;;;;;;6.35;93.90;98874.16;1721141;83;21173;-68
2021/04/16 01:42:46;;;;;;;11.15;6.92;;;;;;;6.37;94.07;98877.91;1703278;83;20971;-68
2021/04/16 01:45:24;;;;;;;11.95;7.08;;;;;;;6.39;94.05;98873.77;1718996;83;20951;-68
2021/04/16 01:47:57;;;;;;;10.93;6.72;;;;;;;6.40;94.00;98873.21;1728214;82;21000;-69
2021/04/16 01:50:29;;;;;;;8.33;5.70;;;;;;;6.42;94.02;98870.44;1700757;83;21141;-69
2021/04/16 01:53:00;;;;;;;11.43;7.58;;;;;;;6.44;94.07;98869.58;1712861;82;20931;-68
2021/04/16 01:55:28;;;;;;;14.38;7.08;;;;;;;6.44;93.96;98866.84;1690321;83;21314;-68
2021/04/16 01:57:56;;;;;;;13.30;7.47;;;;;;;6.45;94.15;98873.11;1743079;81;20998;-68
2021/04/16 02:00:35;;;;;;;12.80;7.90;;;;;;;6.46;94.22;98867.91;1738656;82;20937;-68
2021/04/16 02:03:05;;;;;;;16.93;8.93;;;;;;;6.47;94.05;98870.33;1738570;82;21005;-68
2021/04/16 02:05:33;;;;;;;13.15;7.50;;;;;;;6.46;94.11;98871.44;1738578;82;21516;-68
2021/04/16 02:08:00;;;;;;;15.53;8.45;;;;;;;6.46;93.99;98867.91;1738026;82;21103;-68
2021/04/16 02:10:28;;;;;;;14.13;7.85;;;;;;;6.44;93.98;98877.75;1738029;82;21086;-68
2021/04/16 02:12:55;;;;;;;10.80;6.70;;;;;;;6.42;93.98;98869.07;1737988;82;21495;-68
2021/04/16 02:15:23;;;;;;;8.50;5.83;;;;;;;6.40;93.93;98870.48;1737999;82;21221;-69
2021/04/16 02:17:51;;;;;;;10.50;7.15;;;;;;;6.40;94.09;98870.48;1751690;81;21360;-70
2021/04/16 02:20:22;;;;;;;9.03;6.30;;;;;;;6.41;94.05;98863.37;1738438;81;21027;-69
2021/04/16 02:22:50;;;;;;;8.93;6.20;;;;;;;6.43;94.18;98872.60;1735594;81;21149;-69
2021/04/16 02:25:17;;;;;;;14.05;6.83;;;;;;;6.47;93.95;98874.97;1767777;81;21149;-70
2021/04/16 02:27:46;;;;;;;10.85;6.25;;;;;;;6.48;93.76;98868.41;1701356;84;21098;-70
2021/04/16 02:30:32;;;;;;;10.70;6.45;;;;;;;6.48;93.61;98865.13;1738204;81;21393;-68
2021/04/16 02:33:00;;;;;;;10.58;6.00;;;;;;;6.48;93.45;98870.58;1721201;81;20979;-68
2021/04/16 02:35:28;;;;;;;9.45;6.17;;;;;;;6.49;93.40;98868.66;1739671;81;21614;-68
2021/04/16 02:37:56;;;;;;;10.68;6.55;;;;;;;6.47;93.26;98871.69;1739164;81;21629;-68
2021/04/16 02:40:25;;;;;;;10.70;5.90;;;;;;;6.45;93.12;98866.29;1739833;82;21151;-68
2021/04/16 02:42:54;;;;;;;9.03;6.25;;;;;;;6.41;92.94;98870.19;1739641;81;21203;-69
2021/04/16 02:45:24;;;;;;;6.95;5.90;;;;;;;6.39;93.21;98864.78;1740471;81;21229;-69
2021/04/16 02:47:51;;;;;;;12.15;6.53;;;;;;;6.37;93.34;98870.54;1739676;82;21067;-69
2021/04/16 02:50:23;;;;;;;10.35;6.70;;;;;;;6.37;93.46;98869.17;1739790;82;21170;-69
2021/04/16 02:52:51;;;;;;;12.28;7.17;;;;;;;6.37;93.51;98869.17;1740025;81;21003;-68
2021/04/16 02:55:19;;;;;;;9.05;6.25;;;;;;;6.34;93.42;98869.81;1739506;82;23060;-69
2021/04/16 02:57:48;;;;;;;9.95;5.95;;;;;;;6.34;93.51;98863.55;1739887;82;21004;-69
2021/04/16 03:00:21;;;;;;;9.65;5.87;;;;;;;6.31;93.35;98860.88;1738408;82;20933;-68
2021/04/16 03:02:49;;;;;;;9.83;6.05;;;;;;;6.28;93.56;98854.67;1739678;82;21039;-69
2021/04/16 03:05:17;;;;;;;9.00;5.90;;;;;;;6.26;93.67;98856.34;1739674;81;20947;-69
2021/04/16 03:07:44;;;;;;;7.22;5.53;;;;;;;6.25;93.81;98858.81;1737935;82;21368;-69
2021/04/16 03:10:14;;;;;;;9.58;6.12;;;;;;;6.23;93.92;98858.31;1737224;82;21117;-69
2021/04/16 03:12:42;;;;;;;10.00;6.28;;;;;;;6.22;94.06;98857.25;1737543;82;21008;-68
2021/04/16 03:15:12;;;;;;;10.00;6.58;;;;;;;6.21;94.09;98852.91;1737492;82;21028;-68
2021/04/16 03:17:40;;;;;;;9.23;6.45;;;;;;;6.22;94.29;98856.70;1737156;82;21670;-69
2021/04/16 03:20:11;;;;;;;11.85;5.83;;;;;;;6.23;94.24;98858.31;1737277;82;21378;-68
2021/04/16 03:22:38;;;;;;;9.58;5.75;;;;;;;6.21;94.32;98850.19;1737448;82;21127;-68
2021/04/16 03:25:09;;;;;;;10.15;6.28;;;;;;;6.20;94.50;98849.38;1737071;82;21062;-68
2021/04/16 03:27:38;;;;;;;11.18;6.78;;;;;;;6.16;94.47;98840.75;1737397;82;21138;-69
2021/04/16 03:30:10;;;;;;;10.20;6.40;;;;;;;6.17;94.57;98848.63;1737560;82;21587;-69
2021/04/16 03:32:37;;;;;;;12.47;7.37;;;;;;;6.17;94.56;98840.45;1737358;82;21215;-69
2021/04/16 03:35:07;;;;;;;9.33;6.80;;;;;;;6.18;94.66;98846.70;1737272;81;20973;-68
2021/04/16 03:37:35;;;;;;;11.60;8.05;;;;;;;6.20;94.68;98845.84;1736685;82;21373;-69
2021/04/16 03:40:04;;;;;;;15.20;8.48;;;;;;;6.23;94.62;98847.41;1736716;82;21610;-69
2021/04/16 03:42:32;;;;;;;9.58;6.85;;;;;;;6.25;94.45;98856.64;1737909;82;21136;-69
2021/04/16 03:44:59;;;;;;;11.70;7.58;;;;;;;6.25;94.39;98855.28;1737755;82;21298;-69
2021/04/16 03:47:27;;;;;;;10.48;7.35;;;;;;;6.25;94.41;98862.09;1737924;82;20966;-69
2021/04/16 03:49:55;;;;;;;13.10;8.53;;;;;;;6.26;94.40;98857.70;1737935;82;21059;-69
2021/04/16 03:52:24;;;;;;;12.23;7.58;;;;;;;6.28;94.26;98865.58;1737936;82;20996;-69
2021/04/16 03:54:53;;;;;;;12.00;7.83;;;;;;;6.28;94.26;98865.58;1742641;81;21169;-69
2021/04/16 03:57:22;;;;;;;10.72;7.22;;;;;;;6.28;94.22;98866.94;1747671;80;22332;-69
2021/04/16 03:59:53;;;;;;;13.13;7.62;;;;;;;6.29;94.13;98869.36;1776522;80;21026;-70
2021/04/16 04:02:19;;;;;;;12.35;7.55;;;;;;;6.33;94.19;98867.39;1776616;80;21039;-70
2021/04/16 04:04:48;;;;;;;10.98;7.50;;;;;;;6.37;94.26;98870.54;1710249;84;20951;-69
2021/04/16 04:07:16;;;;;;;11.20;7.33;;;;;;;6.39;94.16;98874.33;1776581;80;20927;-69
2021/04/16 04:09:44;;;;;;;13.62;8.15;;;;;;;6.39;93.90;98872.41;1776616;80;21374;-68
2021/04/16 04:12:15;;;;;;;12.13;8.55;;;;;;;6.41;94.09;98882.45;1776516;80;20951;-68
2021/04/16 04:14:42;;;;;;;11.12;7.58;;;;;;;6.43;94.06;98880.23;1746376;80;20986;-68
2021/04/16 04:17:26;;;;;;;10.85;7.87;;;;;;;6.46;93.90;98882.34;1776476;80;21038;-68
2021/04/16 04:19:54;;;;;;;9.78;7.10;;;;;;;6.48;93.92;98881.48;1774318;80;21505;-67
2021/04/16 04:22:23;;;;;;;10.20;6.28;;;;;;;6.50;93.20;98882.55;1710260;84;21208;-67
2021/04/16 04:24:52;;;;;;;9.63;6.45;;;;;;;6.49;92.96;98884.47;1776621;80;21132;-70
2021/04/16 04:27:20;;;;;;;10.18;6.53;;;;;;;6.50;92.82;98884.72;1710333;84;21545;-69
2021/04/16 04:29:48;;;;;;;12.68;6.55;;;;;;;6.51;92.46;98888.25;1776565;80;20946;-70
2021/04/16 04:32:16;;;;;;;9.70;6.33;;;;;;;6.51;92.18;98887.69;1776595;80;20920;-70
2021/04/16 04:34:44;;;;;;;8.03;6.10;;;;;;;6.50;91.94;98881.19;1776560;80;21258;-68
2021/04/16 04:37:11;;;;;;;9.68;7.03;;;;;;;6.48;91.99;98880.68;1710210;84;21987;-68
2021/04/16 04:39:42;;;;;;;9.88;6.40;;;;;;;6.48;91.99;98880.68;1776592;80;20982;-68
2021/04/16 04:42:11;;;;;;;8.58;6.25;;;;;;;6.51;91.78;98880.87;1776600;80;21541;-68
2021/04/16 04:44:39;;;;;;;9.75;6.78;;;;;;;6.53;91.26;98877.84;1710294;84;21486;-67
2021/04/16 04:47:09;;;;;;;8.68;6.05;;;;;;;6.53;91.26;98877.84;1776646;80;22028;-68
2021/04/16 04:49:37;;;;;;;9.38;6.30;;;;;;;6.54;91.08;98873.45;1776622;80;21501;-73
2021/04/16 04:52:24;;;;;;;15.13;6.85;;;;;;;6.58;91.02;98870.36;1776591;80;20924;-68
2021/04/16 04:54:53;;;;;;;8.30;6.22;;;;;;;6.62;90.91;98876.83;1775426;80;22188;-74
2021/04/16 04:57:21;;;;;;;8.80;5.75;;;;;;;6.62;90.25;98871.37;1772278;80;20979;-73
2021/04/16 04:59:49;;;;;;;7.30;5.42;;;;;;;6.63;90.15;98872.17;1702330;84;21382;-71
2021/04/16 05:02:18;;;;;;;9.93;6.65;;;;;;;6.62;89.22;98872.73;1768416;81;20904;-73
2021/04/16 05:04:46;;;;;;;8.75;6.10;;;;;;;6.59;89.12;98880.72;1768468;81;21467;-73
2021/04/16 05:07:14;;;;;;;9.00;6.15;;;;;;;6.60;89.12;98877.69;1768286;81;21078;-74
2021/04/16 05:09:43;;;;;;;9.48;6.20;;;;;;;6.60;88.92;98870.86;1768399;81;21137;-74
2021/04/16 05:12:12;;;;;;;7.67;5.87;;;;;;;6.61;88.93;98871.12;1702385;83;22214;-74
2021/04/16 05:14:39;;;;;;;18.15;6.60;;;;;;;6.65;88.73;98871.87;1746515;81;21145;-74
2021/04/16 05:17:07;;;;;;;8.55;6.00;;;;;;;6.67;88.61;98873.18;1702316;83;20963;-73
2021/04/16 05:19:35;;;;;;;10.50;6.00;;;;;;;6.66;88.21;98870.76;1768282;81;21058;-73
2021/04/16 05:22:05;;;;;;;6.87;5.10;;;;;;;6.69;88.33;98872.31;1702368;84;21179;-74
2021/04/16 05:24:33;;;;;;;8.73;5.58;;;;;;;6.72;87.95;98870.90;1768329;81;21352;-75
2021/04/16 05:27:07;;;;;;;12.80;6.58;;;;;;;6.73;87.54;98871.15;1702382;84;21708;-74
2021/04/16 05:29:34;;;;;;;8.40;5.95;;;;;;;6.77;87.53;98870.23;1768384;81;20928;-75
2021/04/16 05:32:03;;;;;;;10.78;6.08;;;;;;;6.79;87.23;98873.45;1702331;84;21134;-74
2021/04/16 05:34:33;;;;;;;8.73;6.05;;;;;;;6.80;86.94;98867.44;1768406;80;20963;-75
2021/04/16 05:37:01;;;;;;;10.55;6.55;;;;;;;6.78;86.80;98869.11;1768277;81;21386;-74
2021/04/16 05:39:29;;;;;;;9.33;6.10;;;;;;;6.79;87.02;98868.00;1768355;81;21196;-74
2021/04/16 05:41:59;;;;;;;9.08;6.33;;;;;;;6.79;86.96;98861.18;1702407;84;21620;-75
2021/04/16 05:44:27;;;;;;;10.68;7.05;;;;;;;6.83;86.74;98870.36;1768517;81;20979;-75
2021/04/16 05:46:54;;;;;;;10.32;6.28;;;;;;;6.84;86.83;98871.17;1702536;84;21091;-74
2021/04/16 05:49:25;;;;;;;12.18;8.18;;;;;;;6.87;86.80;98869.19;1768498;81;21212;-73
2021/04/16 05:51:53;;;;;;;17.80;7.67;;;;;;;6.86;86.66;98872.48;1768336;81;21561;-75
2021/04/16 05:54:21;;;;;;;11.43;7.37;;;;;;;6.85;86.82;98869.50;1697280;83;20991;-72
2021/04/16 05:56:48;;;;;;;10.72;7.97;;;;;;;6.87;87.25;98870.56;1749937;81;21090;-73
2021/04/16 05:59:16;;;;;;;11.93;7.60;;;;;;;6.94;87.34;98874.45;1745545;82;21154;-75
2021/04/16 06:01:45;;;;;;;12.98;9.05;;;;;;;6.95;86.95;98868.44;1747330;80;21380;-75
2021/04/16 06:04:19;;;;;;;13.20;8.90;;;;;;;6.92;86.88;98873.98;1753733;80;21026;-75
2021/04/16 06:06:47;;;;;;;13.53;9.25;;;;;;;6.88;86.80;98874.34;1720265;82;21130;-74
2021/04/16 06:09:16;;;;;;;21.05;9.80;;;;;;;6.86;87.04;98868.94;1745609;82;21491;-76
2021/04/16 06:11:45;;;;;;;14.25;9.70;;;;;;;6.85;87.09;98878.24;1745520;81;20935;-74
2021/04/16 06:14:14;;;;;;;16.80;9.35;;;;;;;6.87;87.39;98876.02;1745456;81;21105;-73
2021/04/16 06:16:41;;;;;;;15.20;9.73;;;;;;;6.89;87.31;98881.41;1745456;80;21054;-76
2021/04/16 06:19:10;;;;;;;15.08;9.00;;;;;;;6.91;87.25;98887.38;1745587;81;21137;-75
2021/04/16 06:21:38;;;;;;;13.78;9.03;;;;;;;6.94;87.19;98885.92;1745100;82;21126;-76
2021/04/16 06:24:06;;;;;;;12.25;8.73;;;;;;;6.94;86.82;98880.46;1745584;82;21055;-77
2021/04/16 06:26:34;;;;;;;12.65;8.40;;;;;;;6.98;86.94;98883.38;1745469;81;22280;-78
2021/04/16 06:29:05;;;;;;;11.43;7.97;;;;;;;7.02;86.63;98882.46;1745331;82;21007;-77
2021/04/16 06:31:32;;;;;;;14.07;7.85;;;;;;;7.08;86.54;98884.52;1745634;80;21114;-77
2021/04/16 06:33:59;;;;;;;10.32;7.67;;;;;;;7.13;86.23;98883.84;1745500;82;21605;-77
2021/04/16 06:36:27;;;;;;;11.50;7.97;;;;;;;7.16;85.28;98885.14;1745396;82;21084;-77
2021/04/16 06:38:55;;;;;;;13.55;9.35;;;;;;;7.18;84.91;98887.81;1745518;82;21208;-77
2021/04/16 06:41:32;;;;;;;12.43;8.35;;;;;;;7.22;84.85;98890.17;1745065;82;21140;-77
2021/04/16 06:44:06;;;;;;;11.35;8.08;;;;;;;7.27;84.69;98889.25;1745378;82;21603;-77
2021/04/16 06:46:42;;;;;;;12.43;7.97;;;;;;;7.32;84.20;98879.57;1745723;82;21547;-76
2021/04/16 06:49:18;;;;;;;10.15;7.33;;;;;;;7.39;83.99;98884.04;1745601;82;21151;-76
2021/04/16 06:52:03;;;;;;;12.47;7.85;;;;;;;7.45;83.86;98884.16;1745537;82;21153;-75
2021/04/16 06:54:48;;;;;;;11.63;7.45;;;;;;;7.52;83.64;98885.87;1745734;82;21080;-74
2021/04/16 06:57:42;;;;;;;11.63;7.83;;;;;;;7.56;82.79;98888.78;1746568;82;21627;-74
2021/04/16 07:00:47;;;;;;;14.38;8.05;;;;;;;7.55;81.87;98887.17;1751469;82;21147;-75
2021/04/16 07:03:28;;;;;;;13.55;8.28;;;;;;;7.50;82.20;98892.23;1751519;82;21080;-74
2021/04/16 07:06:01;;;;;;;11.63;7.75;;;;;;;7.54;82.61;98893.19;1751761;82;21384;-74
2021/04/16 07:08:41;;;;;;;14.33;8.90;;;;;;;7.61;82.35;98893.56;1751534;82;26754;-74
2021/04/16 07:11:34;;;;;;;16.35;8.73;;;;;;;7.70;82.14;98899.08;1749118;80;21546;-73
2021/04/16 07:14:04;;;;;;;11.97;8.45;;;;;;;7.74;81.78;98898.70;1769159;80;21094;-73
2021/04/16 07:16:33;;;;;;;15.38;8.28;;;;;;;7.75;81.61;98894.84;1759801;80;21135;-73
2021/04/16 07:19:14;;;;;;;11.05;8.10;;;;;;;7.74;80.71;98900.06;1756107;80;21384;-73
2021/04/16 07:21:41;;;;;;;15.63;8.73;;;;;;;7.68;80.95;98895.85;1684194;83;21169;-72
2021/04/16 07:24:12;;;;;;;13.55;8.40;;;;;;;7.69;81.43;98894.73;1716461;83;21601;-74
2021/04/16 07:26:50;;;;;;;14.87;9.90;;;;;;;7.74;81.40;98898.70;1716388;83;21207;-76
2021/04/16 07:29:51;;;;;;;13.28;9.10;;;;;;;7.75;81.32;98894.84;1716529;83;21482;-72
2021/04/16 07:32:35;;;;;;;18.42;11.48;;;;;;;7.73;81.21;98901.19;1716427;83;21168;-68
2021/04/16 07:35:27;;;;;;;20.12;11.43;;;;;;;7.73;81.57;98905.84;1695691;84;21034;-67
2021/04/16 07:38:14;;;;;;;14.98;9.60;;;;;;;7.73;81.35;98905.28;1695646;84;21101;-67
2021/04/16 07:40:45;;;;;;;11.10;7.97;;;;;;;7.70;81.77;98903.17;1695572;84;21185;-67
2021/04/16 07:43:44;;;;;;;10.85;7.58;;;;;;;7.71;81.18;98903.98;1668047;84;21145;-68
2021/04/16 07:46:30;;;;;;;22.27;11.78;;;;;;;7.71;81.35;98906.16;1695682;84;22303;-67
2021/04/16 07:49:15;;;;;;;14.58;10.10;;;;;;;7.70;81.29;98902.37;1670722;84;21117;-67
2021/04/16 07:51:46;;;;;;;13.68;9.58;;;;;;;7.70;81.02;98907.27;1695648;84;21153;-69
2021/04/16 07:54:21;;;;;;;17.50;10.25;;;;;;;7.66;81.18;98906.28;1695639;84;21037;-68
2021/04/16 07:57:13;;;;;;;24.32;13.03;;;;;;;7.60;81.25;98912.99;1695564;84;21157;-69
2021/04/16 07:59:56;;;;;;;20.17;12.00;;;;;;;7.56;81.67;98914.73;1665113;84;21479;-71
2021/04/16 08:02:33;;;;;;;24.52;12.80;;;;;;;7.58;81.95;98910.57;1681250;84;21139;-78
2021/04/16 08:05:27;;;;;;;17.57;10.78;;;;;;;7.63;82.00;98900.08;1726204;82;21114;-77
2021/04/16 08:08:30;;;;;;;24.67;13.98;;;;;;;7.73;82.24;98913.48;1734975;82;21582;-78
2021/04/16 08:11:10;;;;;;;28.80;14.68;;;;;;;7.86;81.97;98912.59;1736015;82;20933;-77
2021/04/16 08:13:48;;;;;;;55.70;22.05;;;;;;;8.02;81.92;98913.56;1732887;82;21043;-78
2021/04/16 08:16:40;;;;;;;55.88;24.37;;;;;;;8.10;80.85;98910.03;1729248;80;21087;-74
2021/04/16 08:19:23;;;;;;;23.50;12.35;;;;;;;8.14;80.80;98911.02;1718668;83;21008;-71
2021/04/16 08:21:59;;;;;;;25.35;12.20;;;;;;;8.19;80.94;98914.98;1718648;82;21131;-71
2021/04/16 08:24:54;;;;;;;13.85;9.80;;;;;;;8.23;80.33;98914.60;1718723;83;20954;-71
2021/04/16 08:27:43;;;;;;;15.35;9.30;;;;;;;8.27;81.03;98919.13;1718793;83;21527;-71
2021/04/16 08:30:26;;;;;;;18.42;11.38;;;;;;;8.35;80.57;98917.58;1737408;82;21577;-71
2021/04/16 08:33:05;;;;;;;19.90;12.33;;;;;;;8.38;79.13;98920.24;1747690;81;21557;-73
2021/04/16 08:35:50;;;;;;;19.45;12.00;;;;;;;8.32;79.67;98917.38;1747144;82;21553;-71
2021/04/16 08:38:21;;;;;;;20.23;12.43;;;;;;;8.26;79.33;98920.25;1747617;82;21188;-74
2021/04/16 08:40:53;;;;;;;59.70;25.88;;;;;;;8.23;79.36;98918.70;1747852;81;21267;-78
2021/04/16 08:43:50;;;;;;;41.77;19.42;;;;;;;8.18;79.38;98915.55;1748178;82;21149;-81
2021/04/16 08:46:38;;;;;;;54.40;24.02;;;;;;;8.18;79.59;98920.20;1711441;83;20903;-75
2021/04/16 08:49:28;;;;;;;56.40;24.43;;;;;;;8.20;79.43;98921.50;1748499;81;21664;-75
2021/04/16 08:52:17;;;;;;;33.15;16.23;;;;;;;8.19;78.97;98918.53;1748447;82;21054;-76
2021/04/16 08:54:48;;;;;;;25.32;15.35;;;;;;;8.15;79.37;98920.84;1729459;82;21237;-75
2021/04/16 08:57:27;;;;;;;55.38;23.85;;;;;;;8.12;79.48;98919.54;1748263;82;21094;-75
2021/04/16 09:00:09;;;;;;;29.55;17.15;;;;;;;8.09;79.45;98922.09;1751176;81;21070;-92
2021/04/16 09:02:51;;;;;;;29.18;17.20;;;;;;;8.09;79.62;98921.53;1734533;82;21057;-80
2021/04/16 09:05:27;;;;;;;26.45;15.75;;;;;;;8.11;79.55;98922.59;1715911;83;21078;-77
2021/04/16 09:08:11;;;;;;;24.12;13.00;;;;;;;8.11;79.16;98923.95;1714164;83;21281;-72
2021/04/16 09:10:56;;;;;;;20.57;12.28;;;;;;;8.07;79.67;98922.44;1715916;83;21481;-73
2021/04/16 09:13:44;;;;;;;17.82;10.48;;;;;;;8.07;79.59;98925.73;1712500;83;21146;-73
2021/04/16 09:16:21;;;;;;;23.12;13.78;;;;;;;8.11;80.11;98928.86;1708341;83;21610;-74
2021/04/16 09:18:53;;;;;;;21.37;12.55;;;;;;;8.13;79.72;98930.72;1710669;84;21066;-74
2021/04/16 09:21:29;;;;;;;20.10;11.50;;;;;;;8.18;79.53;98936.61;1712653;82;21050;-70
2021/04/16 09:24:13;;;;;;;16.27;11.00;;;;;;;8.19;79.57;98933.56;1690095;83;21044;-69
2021/04/16 09:26:47;;;;;;;26.62;14.45;;;;;;;8.19;79.89;98930.83;1716186;83;25131;-69
2021/04/16 09:29:35;;;;;;;22.77;13.30;;;;;;;8.27;79.69;98933.36;1709713;83;21073;-68
2021/04/16 09:32:15;;;;;;;22.10;12.82;;;;;;;8.27;79.30;98933.36;1715618;83;21500;-68
2021/04/16 09:34:49;;;;;;;18.62;11.78;;;;;;;8.29;78.86;98933.85;1674555;84;21560;-68
2021/04/16 09:37:33;;;;;;;19.52;12.05;;;;;;;8.31;78.85;98935.70;1715928;83;20958;-68
2021/04/16 09:40:15;;;;;;;16.67;9.73;;;;;;;8.31;78.75;98937.08;1716166;83;21579;-72
2021/04/16 09:42:46;;;;;;;;;;;;;;;8.30;78.83;98940.93;1715564;83;21160;-69
2021/04/16 09:45:33;;;;;;;18.87;11.05;;;;;;;8.26;78.62;98938.58;1712860;83;20241;-77
2021/04/16 09:48:10;;;;;;;19.07;11.25;;;;;;;8.32;78.82;98945.53;1700206;84;21451;-68
2021/04/16 09:50:45;;;;;;;18.10;11.43;;;;;;;8.43;78.09;98940.62;1685327;83;21121;-68
2021/04/16 09:53:27;;;;;;;17.17;10.78;;;;;;;8.46;77.62;98942.16;1697509;84;21222;-68
2021/04/16 09:56:05;;;;;;;21.20;8.95;;;;;;;8.47;77.82;98936.13;1715941;83;21115;-67
2021/04/16 09:58:44;;;;;;;14.33;8.98;;;;;;;8.54;77.63;98937.28;1727370;83;21516;-68
2021/04/16 10:01:17;;;;;;;14.40;9.73;;;;;;;8.62;77.24;98937.62;1710279;84;21214;-64
2021/04/16 10:03:59;;;;;;;13.10;9.28;;;;;;;8.70;77.37;98938.99;1776258;80;20928;-67
2021/04/16 10:06:35;;;;;;;13.90;9.68;;;;;;;8.80;77.29;98942.80;1745257;82;21198;-66
2021/04/16 10:09:26;;;;;;;13.53;8.58;;;;;;;8.88;76.80;98937.11;1744259;82;21192;-66
2021/04/16 10:12:21;;;;;;;12.45;8.53;;;;;;;8.98;75.97;98942.84;1745451;82;21501;-66
2021/04/16 10:14:50;;;;;;;12.70;9.28;;;;;;;9.01;75.38;98939.46;1745511;82;20962;-66
2021/04/16 10:17:21;;;;;;;14.58;8.88;;;;;;;9.08;75.76;98943.34;1745426;82;21085;-67
2021/04/16 10:19:58;;;;;;;13.18;8.73;;;;;;;9.22;75.83;98938.52;1744681;82;21173;-67
2021/04/16 10:22:31;;;;;;;14.18;9.75;;;;;;;9.35;75.14;98937.29;1730576;82;21085;-66
2021/04/16 12:39:53;;;;;;;28.47;16.17;;;;;;;9.15;76.09;98939.56;1767342;81;22356;-67
2021/04/16 12:42:22;;;;;;;17.62;11.08;;;;;;;9.14;75.85;98942.06;1767166;81;20940;-68
2021/04/16 12:44:52;;;;;;;19.35;12.07;;;;;;;9.12;75.63;98948.98;1767470;81;21079;-68
2021/04/16 12:47:30;;;;;;;13.88;9.63;;;;;;;9.10;75.58;98942.45;1767736;81;21483;-74
2021/04/16 12:49:59;;;;;;;15.68;11.18;;;;;;;9.12;75.46;98935.29;1767278;81;21546;-69
2021/04/16 12:52:28;;;;;;;12.15;8.85;;;;;;;9.21;75.94;98933.37;1767672;79;21350;-67
2021/04/16 12:54:55;;;;;;;19.30;9.53;;;;;;;9.36;74.95;98923.84;1767527;81;21617;-69
2021/04/16 12:57:38;;;;;;;17.52;9.30;;;;;;;9.48;74.53;98931.65;1767146;80;21004;-68
2021/04/16 13:00:16;;;;;;;17.23;10.35;;;;;;;9.56;74.12;98927.30;1767708;81;21091;-68
2021/04/16 13:02:44;;;;;;;15.50;9.85;;;;;;;9.63;73.15;98934.47;1767432;81;21169;-67
2021/04/16 13:05:14;;;;;;;13.15;9.25;;;;;;;9.64;72.77;98929.78;1767484;81;21354;-68
2021/04/16 13:07:42;;;;;;;13.22;9.30;;;;;;;9.65;73.12;98930.03;1767726;81;21087;-71
2021/04/16 13:10:15;;;;;;;14.90;9.30;;;;;;;9.72;72.99;98931.72;1767485;81;21150;-70
2021/04/16 13:12:43;;;;;;;13.88;8.58;;;;;;;9.78;72.37;98924.94;1767637;81;21055;-68
2021/04/16 13:15:13;;;;;;;14.13;9.38;;;;;;;9.77;71.72;98927.44;1767699;81;21071;-69
2021/04/16 13:17:53;;;;;;;15.80;10.15;;;;;;;9.73;71.30;98931.39;1767283;81;22341;-70
2021/04/16 13:20:23;;;;;;;13.32;9.28;;;;;;;9.71;71.88;98937.77;1767737;80;20936;-70
2021/04/16 13:22:51;;;;;;;12.20;8.58;;;;;;;9.70;71.48;98928.49;1780842;80;20997;-72
2021/04/16 13:25:23;;;;;;;14.03;9.93;;;;;;;9.74;71.10;98931.63;1783830;80;21036;-69
2021/04/16 13:27:51;;;;;;;12.45;9.08;;;;;;;9.71;70.75;98935.02;1776234;77;23733;-68
2021/04/16 13:30:26;;;;;;;16.35;10.63;;;;;;;9.67;71.20;98929.95;1737434;82;22256;-68
2021/04/16 13:32:56;;;;;;;12.73;9.38;;;;;;;9.68;70.97;98930.75;1720130;81;21064;-69
2021/04/16 13:35:40;;;;;;;14.80;10.35;;;;;;;9.66;70.91;98929.70;1752618;81;21195;-77
2021/04/16 13:38:18;;;;;;;15.00;10.60;;;;;;;9.65;70.68;98935.51;1752990;81;20933;-67
2021/04/16 13:40:46;;;;;;;16.57;10.68;;;;;;;9.57;70.58;98933.82;1752863;81;21258;-66
2021/04/16 13:43:14;;;;;;;16.73;11.60;;;;;;;9.54;71.14;98934.47;1752976;81;21254;-68
2021/04/16 13:45:43;;;;;;;14.15;10.25;;;;;;;9.59;71.30;98934.30;1752855;81;21024;-68
2021/04/16 13:48:11;;;;;;;14.70;9.58;;;;;;;9.63;71.74;98929.55;1766850;80;21158;-67
2021/04/16 13:50:39;;;;;;;14.43;9.90;;;;;;;9.70;71.71;98931.23;1758411;80;21032;-72
2021/04/16 13:53:07;;;;;;;15.60;10.53;;;;;;;9.72;70.75;98933.09;1782179;80;21041;-68
2021/04/16 13:55:35;;;;;;;15.18;10.13;;;;;;;9.66;70.70;98928.34;1782656;80;21208;-69
2021/04/16 13:58:03;;;;;;;18.30;10.40;;;;;;;9.66;71.56;98931.64;1783766;80;21563;-70
2021/04/16 14:00:33;;;;;;;16.10;10.95;;;;;;;9.64;72.03;98930.59;1783979;80;20922;-70
2021/04/16 14:03:17;;;;;;;17.10;11.40;;;;;;;9.65;72.47;98929.47;1783903;80;21135;-68
2021/04/16 14:05:50;;;;;;;18.65;11.38;;;;;;;9.67;73.15;98934.63;1783294;80;20993;-69
2021/04/16 14:08:30;;;;;;;;;;;;;;;9.69;73.92;98937.28;1786682;80;21359;-72
2021/04/16 14:10:59;;;;;;;14.90;10.03;;;;;;;9.69;73.87;98933.17;1783515;79;20132;-69
2021/04/16 14:13:28;;;;;;;14.50;9.98;;;;;;;9.70;73.99;98936.71;1782242;80;21324;-68
2021/04/16 14:16:03;;;;;;;17.42;11.63;;;;;;;9.74;74.43;98930.83;1782284;80;21461;-69
2021/04/16 14:18:43;;;;;;;16.07;10.40;;;;;;;9.75;74.33;98934.61;1782272;80;21021;-69